createdAt,value
2018-11-23T00:00:18.721Z,-1.20
2018-11-23T00:02:48.029Z,-1.30
2018-11-23T00:05:16.539Z,-1.30
2018-11-23T00:07:45.273Z,-1.40
2018-11-23T00:10:15.800Z,-1.40
2018-11-23T00:12:44.545Z,-1.40
2018-11-23T00:15:14.237Z,-1.30
2018-11-23T00:17:42.817Z,-1.30
2018-11-23T00:20:13.500Z,-1.40
2018-11-23T00:22:42.014Z,-1.50
2018-11-23T00:25:12.676Z,-1.70
2018-11-23T00:27:41.273Z,-1.70
2018-11-23T00:30:14.489Z,-1.70
2018-11-23T00:32:43.260Z,-1.80
2018-11-23T00:35:14.269Z,-1.80
2018-11-23T00:37:43.001Z,-1.90
2018-11-23T00:40:13.792Z,-2.00
2018-11-23T00:42:43.013Z,-2.10
2018-11-23T00:45:12.764Z,-2.00
2018-11-23T00:47:41.657Z,-2.10
2018-11-23T00:50:11.965Z,-2.20
2018-11-23T00:52:41.060Z,-2.20
2018-11-23T00:55:10.885Z,-2.10
2018-11-23T00:57:39.453Z,-2.10
2018-11-23T01:00:17.776Z,-2.00
2018-11-23T01:02:46.412Z,-2.00
2018-11-23T01:05:16.250Z,-1.90
2018-11-23T01:07:45.213Z,-2.00
2018-11-23T01:10:15.097Z,-2.00
2018-11-23T01:12:44.676Z,-2.00
2018-11-23T01:15:13.276Z,-1.90
2018-11-23T01:17:41.845Z,-1.90
2018-11-23T01:20:13.669Z,-1.80
2018-11-23T01:22:42.386Z,-1.80
2018-11-23T01:25:13.085Z,-1.80
2018-11-23T01:27:42.465Z,-1.90
2018-11-23T01:30:15.329Z,-1.90
2018-11-23T01:32:43.910Z,-1.80
2018-11-23T01:35:12.482Z,-1.70
2018-11-23T01:37:41.041Z,-1.60
2018-11-23T01:40:11.733Z,-1.70
2018-11-23T01:42:40.229Z,-1.80
2018-11-23T01:45:09.581Z,-1.80
2018-11-23T01:47:38.144Z,-1.70
2018-11-23T01:50:15.365Z,-1.70
2018-11-23T01:52:44.897Z,-1.80
2018-11-23T01:55:14.071Z,-1.80
2018-11-23T01:57:43.011Z,-1.70
2018-11-23T02:00:16.502Z,-1.80
2018-11-23T02:02:45.536Z,-1.70
2018-11-23T02:05:14.054Z,-1.80
2018-11-23T02:07:42.803Z,-1.90
2018-11-23T02:10:12.672Z,-1.80
2018-11-23T02:12:41.414Z,-1.70
2018-11-23T02:15:13.745Z,-1.80
2018-11-23T02:17:42.289Z,-1.70
2018-11-23T02:20:12.007Z,-1.60
2018-11-23T02:22:40.542Z,-1.70
2018-11-23T02:25:09.100Z,-1.70
2018-11-23T02:27:37.616Z,-1.70
2018-11-23T02:30:09.657Z,-1.70
2018-11-23T02:32:38.141Z,-1.80
2018-11-23T02:35:06.693Z,-1.70
2018-11-23T02:37:35.181Z,-1.70
2018-11-23T02:40:03.804Z,-1.80
2018-11-23T02:42:32.292Z,-1.80
2018-11-23T02:45:00.820Z,-1.70
2018-11-23T02:47:29.305Z,-1.80
2018-11-23T02:49:57.789Z,-1.80
2018-11-23T02:52:26.324Z,-1.80
2018-11-23T02:54:54.824Z,-2.00
2018-11-23T02:57:23.317Z,-2.00
2018-11-23T02:59:51.805Z,-2.00
2018-11-23T03:02:20.290Z,-2.00
2018-11-23T03:04:48.793Z,-2.00
2018-11-23T03:07:17.326Z,-2.10
2018-11-23T03:09:45.802Z,-2.10
2018-11-23T03:12:14.327Z,-2.10
2018-11-23T03:14:42.818Z,-2.20
2018-11-23T03:17:11.313Z,-2.10
2018-11-23T03:19:39.807Z,-2.10
2018-11-23T03:22:08.308Z,-2.10
2018-11-23T03:24:36.820Z,-2.00
2018-11-23T03:27:05.637Z,-1.90
2018-11-23T03:29:34.138Z,-1.90
2018-11-23T03:32:02.613Z,-2.00
2018-11-23T03:34:31.117Z,-2.10
2018-11-23T03:36:59.602Z,-2.10
2018-11-23T03:39:34.040Z,-1.90
2018-11-23T03:41:56.701Z,-1.80
2018-11-23T03:44:25.189Z,-1.80
2018-11-23T03:46:53.700Z,-2.00
2018-11-23T03:49:22.221Z,-2.00
2018-11-23T03:51:50.857Z,-1.90
2018-11-23T03:54:19.411Z,-1.90
2018-11-23T03:56:47.905Z,-1.90
2018-11-23T03:59:16.405Z,-2.20
2018-11-23T04:01:44.905Z,-2.10
2018-11-23T04:04:13.438Z,-2.10
2018-11-23T04:06:41.925Z,-2.00
2018-11-23T04:09:10.417Z,-2.00
2018-11-23T04:11:38.933Z,-1.90
2018-11-23T04:14:07.460Z,-2.00
2018-11-23T04:16:36.021Z,-2.10
2018-11-23T04:19:04.572Z,-2.00
2018-11-23T04:21:33.076Z,-2.00
2018-11-23T04:24:01.556Z,-1.90
2018-11-23T04:26:30.045Z,-1.80
2018-11-23T04:28:58.545Z,-1.80
2018-11-23T04:31:27.031Z,-2.00
2018-11-23T04:33:55.537Z,-2.00
2018-11-23T04:36:24.034Z,-1.90
2018-11-23T04:38:52.593Z,-1.90
2018-11-23T04:41:21.096Z,-1.90
2018-11-23T04:43:49.767Z,-1.90
2018-11-23T04:46:18.274Z,-1.90
2018-11-23T04:48:46.769Z,-1.90
2018-11-23T04:51:15.349Z,-2.10
2018-11-23T04:53:43.855Z,-2.20
2018-11-23T04:56:12.349Z,-2.10
2018-11-23T04:58:40.829Z,-2.10
2018-11-23T05:01:09.413Z,-1.90
2018-11-23T05:03:37.914Z,-1.90
2018-11-23T05:06:06.541Z,-2.00
2018-11-23T05:08:35.024Z,-2.00
2018-11-23T05:11:03.520Z,-1.90
2018-11-23T05:13:32.004Z,-1.80
2018-11-23T05:16:00.484Z,-1.80
2018-11-23T05:18:28.972Z,-1.80
2018-11-23T05:20:57.696Z,-1.90
2018-11-23T05:23:26.197Z,-1.90
2018-11-23T05:25:54.737Z,-1.90
2018-11-23T05:28:23.229Z,-1.90
2018-11-23T05:30:51.729Z,-1.90
2018-11-23T05:33:20.231Z,-2.00
2018-11-23T05:35:48.776Z,-2.00
2018-11-23T05:38:17.265Z,-2.00
2018-11-23T05:40:45.768Z,-2.00
2018-11-23T05:43:14.287Z,-2.10
2018-11-23T05:45:42.789Z,-2.00
2018-11-23T05:48:11.290Z,-2.10
2018-11-23T05:50:39.787Z,-2.20
2018-11-23T05:53:08.281Z,-2.00
2018-11-23T05:55:36.768Z,-2.00
2018-11-23T05:58:06.198Z,-2.00
2018-11-23T06:00:34.790Z,-2.00
2018-11-23T06:03:03.317Z,-2.00
2018-11-23T06:05:31.789Z,-2.20
2018-11-23T06:08:00.271Z,-2.20
2018-11-23T06:10:28.800Z,-2.10
2018-11-23T06:12:57.300Z,-2.10
2018-11-23T06:15:25.960Z,-2.10
2018-11-23T06:17:54.468Z,-2.10
2018-11-23T06:20:24.773Z,-2.10
2018-11-23T06:22:54.168Z,-2.20
2018-11-23T06:25:30.337Z,-2.10
2018-11-23T06:27:58.840Z,-2.20
2018-11-23T06:30:27.382Z,-2.10
2018-11-23T06:33:06.900Z,-2.00
2018-11-23T06:35:35.486Z,-2.00
2018-11-23T06:38:04.010Z,-2.10
2018-11-23T06:40:32.520Z,-2.00
2018-11-23T06:43:01.053Z,-2.00
2018-11-23T06:45:30.851Z,-1.90
2018-11-23T06:47:59.393Z,-1.90
2018-11-23T06:50:27.896Z,-2.00
2018-11-23T06:52:56.381Z,-2.00
2018-11-23T06:55:24.886Z,-1.90
2018-11-23T06:57:53.401Z,-2.00
2018-11-23T07:00:21.933Z,-2.10
2018-11-23T07:02:50.461Z,-2.10
2018-11-23T07:05:18.965Z,-2.00
2018-11-23T07:07:47.853Z,-2.00
2018-11-23T07:10:16.362Z,-2.00
2018-11-23T07:12:44.873Z,-2.00
2018-11-23T07:15:13.769Z,-2.00
2018-11-23T07:17:42.649Z,-2.00
2018-11-23T07:20:13.416Z,-2.10
2018-11-23T07:22:42.359Z,-2.20
2018-11-23T07:25:12.840Z,-2.20
2018-11-23T07:27:41.735Z,-2.20
2018-11-23T07:30:12.285Z,-2.20
2018-11-23T07:32:40.853Z,-2.30
2018-11-23T07:35:09.357Z,-2.30
2018-11-23T07:37:37.897Z,-2.40
2018-11-23T07:40:18.565Z,-2.40
2018-11-23T07:42:47.075Z,-2.30
2018-11-23T07:45:15.569Z,-2.40
2018-11-23T07:47:44.073Z,-2.20
2018-11-23T07:50:12.649Z,-2.20
2018-11-23T07:52:41.141Z,-2.10
2018-11-23T07:55:11.508Z,-2.30
2018-11-23T07:57:40.084Z,-2.40
2018-11-23T08:00:16.673Z,-2.40
2018-11-23T08:02:45.828Z,-2.30
2018-11-23T08:05:15.445Z,-2.20
2018-11-23T08:07:44.401Z,-2.10
2018-11-23T08:10:13.767Z,-2.30
2018-11-23T08:12:46.575Z,-2.40
2018-11-23T08:15:23.957Z,-2.30
2018-11-23T08:17:52.525Z,-2.40
2018-11-23T08:20:22.617Z,-2.40
2018-11-23T08:22:51.168Z,-2.30
2018-11-23T08:25:20.926Z,-2.10
2018-11-23T08:27:50.744Z,-2.30
2018-11-23T08:30:21.637Z,-2.30
2018-11-23T08:32:50.152Z,-2.30
2018-11-23T08:35:18.733Z,-2.30
2018-11-23T08:37:47.381Z,-2.20
2018-11-23T08:40:19.269Z,-2.10
2018-11-23T08:42:49.309Z,-2.10
2018-11-23T08:45:19.549Z,-2.30
2018-11-23T08:47:48.075Z,-2.20
2018-11-23T08:50:20.857Z,-2.30
2018-11-23T08:52:49.353Z,-2.20
2018-11-23T08:55:18.422Z,-2.20
2018-11-23T09:02:46.256Z,-2.60
2018-11-23T09:05:15.449Z,-2.70
2018-11-23T09:07:44.875Z,-2.60
2018-11-23T09:10:16.313Z,-2.50
2018-11-23T09:12:46.312Z,-2.40
2018-11-23T09:15:15.428Z,-2.40
2018-11-23T09:17:44.912Z,-2.40
2018-11-23T09:20:14.432Z,-2.40
2018-11-23T09:22:42.949Z,-2.40
2018-11-23T09:25:14.950Z,-2.30
2018-11-23T09:27:43.473Z,-2.40
2018-11-23T09:30:15.311Z,-2.40
2018-11-23T09:32:44.055Z,-2.60
2018-11-23T09:35:12.590Z,-2.60
2018-11-23T09:37:41.453Z,-2.60
2018-11-23T09:40:12.977Z,-2.70
2018-11-23T09:42:41.925Z,-2.50
2018-11-23T09:45:13.133Z,-2.50
2018-11-23T09:47:41.685Z,-2.30
2018-11-23T09:50:12.457Z,-2.30
2018-11-23T09:52:41.023Z,-2.40
2018-11-23T09:55:09.848Z,-2.40
2018-11-23T09:57:38.627Z,-2.40
2018-11-23T10:00:12.421Z,-2.40
2018-11-23T10:02:41.289Z,-2.30
2018-11-23T10:05:10.771Z,-2.20
2018-11-23T10:07:39.285Z,-2.20
2018-11-23T10:10:09.809Z,-2.00
2018-11-23T10:12:38.313Z,-2.00
2018-11-23T10:15:07.533Z,-2.00
2018-11-23T10:17:36.081Z,-2.00
2018-11-23T10:20:06.698Z,-2.10
2018-11-23T10:22:35.216Z,-2.10
2018-11-23T10:25:03.852Z,-2.10
2018-11-23T10:27:32.367Z,-2.20
2018-11-23T10:30:01.326Z,-2.30
2018-11-23T10:32:29.475Z,-2.20
2018-11-23T10:34:57.996Z,-2.10
2018-11-23T10:37:26.510Z,-2.00
2018-11-23T10:39:55.140Z,-2.00
2018-11-23T10:42:23.773Z,-2.10
2018-11-23T10:44:52.292Z,-2.00
2018-11-23T10:47:20.811Z,-2.00
2018-11-23T10:49:49.359Z,-2.00
2018-11-23T10:52:17.888Z,-1.90
2018-11-23T10:54:46.403Z,-2.00
2018-11-23T10:57:14.906Z,-2.00
2018-11-23T10:59:43.415Z,-2.00
2018-11-23T11:02:17.696Z,-2.00
2018-11-23T11:04:52.512Z,-1.90
2018-11-23T11:07:21.010Z,-2.00
2018-11-23T11:09:49.511Z,-2.00
2018-11-23T11:12:18.147Z,-1.90
2018-11-23T11:14:46.645Z,-2.00
2018-11-23T11:17:15.178Z,-1.90
2018-11-23T11:19:43.709Z,-1.90
2018-11-23T11:22:12.208Z,-1.90
2018-11-23T11:24:40.709Z,-1.90
2018-11-23T11:27:09.217Z,-1.80
2018-11-23T11:29:37.748Z,-2.00
2018-11-23T11:32:06.308Z,-1.90
2018-11-23T11:34:34.843Z,-1.90
2018-11-23T11:37:04.305Z,-1.90
2018-11-23T11:39:32.828Z,-2.00
2018-11-23T11:42:01.354Z,-1.90
2018-11-23T15:05:11.213Z,-1.20
2018-11-23T15:07:39.745Z,-1.20
2018-11-23T15:10:11.701Z,-1.20
2018-11-23T15:12:40.217Z,-1.20
2018-11-23T15:15:12.652Z,-1.20
2018-11-23T15:17:41.968Z,-1.20
2018-11-23T15:20:15.311Z,-1.30
2018-11-23T15:22:44.693Z,-1.20
2018-11-23T15:25:13.209Z,-1.20
2018-11-23T15:27:42.430Z,-1.20
2018-11-23T15:30:18.133Z,-1.20
2018-11-23T15:32:46.681Z,-1.20
2018-11-23T15:35:16.141Z,-1.10
2018-11-23T15:37:44.668Z,-1.10
2018-11-23T15:40:16.179Z,-1.10
2018-11-23T15:42:45.283Z,-1.30
2018-11-23T15:45:16.153Z,-1.30
2018-11-23T15:47:44.665Z,-1.20
2018-11-23T15:50:16.985Z,-1.30
2018-11-23T15:52:46.148Z,-1.30
2018-11-23T15:55:17.539Z,-1.40
2018-11-23T15:57:47.237Z,-1.30
2018-11-23T16:00:18.914Z,-1.20
2018-11-23T16:02:48.177Z,-1.30
2018-11-23T16:05:17.398Z,-1.30
2018-11-23T16:07:46.913Z,-1.20
2018-11-23T16:10:20.246Z,-1.20
2018-11-23T16:12:49.910Z,-1.30
2018-11-23T16:15:19.839Z,-1.30
2018-11-23T16:17:49.012Z,-1.30
2018-11-23T16:20:19.557Z,-1.30
2018-11-23T16:22:49.653Z,-1.40
2018-11-23T16:25:18.705Z,-1.40
2018-11-23T16:27:48.549Z,-1.40
2018-11-23T16:30:21.110Z,-1.40
2018-11-23T16:32:50.657Z,-1.40
2018-11-23T16:35:20.565Z,-1.40
2018-11-23T16:37:49.290Z,-1.50
2018-11-23T16:40:19.351Z,-1.50
2018-11-23T16:42:48.161Z,-1.50
2018-11-23T16:45:19.709Z,-1.50
2018-11-23T16:47:49.090Z,-1.50
2018-11-23T16:50:17.908Z,-1.50
2018-11-23T16:52:47.820Z,-1.50
2018-11-23T16:55:17.448Z,-1.60
2018-11-23T16:57:47.650Z,-1.70
2018-11-23T17:00:21.165Z,-1.80
2018-11-23T17:02:49.694Z,-1.70
2018-11-23T17:05:19.749Z,-1.70
2018-11-23T17:07:48.266Z,-1.70
2018-11-23T17:10:17.637Z,-1.80
2018-11-23T17:12:46.314Z,-1.90
2018-11-23T17:15:17.172Z,-1.80
2018-11-23T17:17:45.906Z,-1.90
2018-11-23T17:20:16.049Z,-1.90
2018-11-23T17:22:45.765Z,-2.00
2018-11-23T17:25:15.901Z,-1.90
2018-11-23T17:27:45.000Z,-1.80
2018-11-23T17:30:15.977Z,-2.00
2018-11-23T17:32:44.514Z,-2.10
2018-11-23T17:35:13.325Z,-2.10
2018-11-23T17:37:42.144Z,-2.00
2018-11-23T17:40:13.098Z,-2.20
2018-11-23T17:42:42.493Z,-2.20
2018-11-23T17:45:16.462Z,-2.20
2018-11-23T17:47:44.993Z,-2.20
2018-11-23T17:50:15.849Z,-2.10
2018-11-23T17:52:44.944Z,-2.00
2018-11-23T17:55:14.458Z,-2.00
2018-11-23T17:57:44.078Z,-2.00
2018-11-23T18:00:14.835Z,-1.90
2018-11-23T18:02:43.693Z,-1.90
2018-11-23T18:05:14.450Z,-2.00
2018-11-23T18:07:43.005Z,-2.10
2018-11-23T18:10:14.763Z,-2.20
2018-11-23T18:12:43.553Z,-2.30
2018-11-23T18:15:16.171Z,-2.30
2018-11-23T18:17:45.733Z,-2.30
2018-11-23T18:20:15.651Z,-2.30
2018-11-23T18:22:45.112Z,-2.20
2018-11-23T18:25:18.618Z,-2.20
2018-11-23T18:27:47.752Z,-2.30
2018-11-23T18:30:16.319Z,-2.20
2018-11-23T18:32:44.828Z,-2.20
2018-11-23T18:35:14.345Z,-2.30
2018-11-23T18:37:42.873Z,-2.50
2018-11-23T18:40:13.558Z,-2.40
2018-11-23T18:42:42.068Z,-2.40
2018-11-23T18:45:13.356Z,-2.40
2018-11-23T18:47:43.205Z,-2.30
2018-11-23T18:50:12.813Z,-2.40
2018-11-23T18:52:41.317Z,-2.50
2018-11-23T18:55:17.507Z,-2.40
2018-11-23T18:57:39.840Z,-2.40
2018-11-23T19:00:11.065Z,-2.40
2018-11-23T19:02:39.582Z,-2.40
2018-11-23T19:05:16.989Z,-2.50
2018-11-23T19:07:45.512Z,-2.60
2018-11-23T19:10:15.124Z,-2.50
2018-11-23T19:12:43.658Z,-2.50
2018-11-23T19:15:13.621Z,-2.50
2018-11-23T19:17:42.260Z,-2.50
2018-11-23T19:20:14.238Z,-2.50
2018-11-23T19:22:43.572Z,-2.50
2018-11-23T19:25:12.128Z,-2.50
2018-11-23T19:27:40.644Z,-2.40
2018-11-23T19:30:11.229Z,-2.50
2018-11-23T19:32:39.749Z,-2.50
2018-11-23T19:35:08.715Z,-2.60
2018-11-23T19:37:37.289Z,-2.50
2018-11-23T19:40:10.120Z,-2.50
2018-11-23T19:42:39.511Z,-2.50
2018-11-23T19:45:11.457Z,-2.50
2018-11-23T19:47:40.125Z,-2.50
2018-11-23T19:50:11.109Z,-2.40
2018-11-23T19:52:40.565Z,-2.50
2018-11-23T19:55:10.465Z,-2.50
2018-11-23T19:57:38.974Z,-2.50
2018-11-23T20:00:11.961Z,-2.60
2018-11-23T20:02:40.481Z,-2.50
2018-11-23T20:05:09.327Z,-2.50
2018-11-23T20:07:37.840Z,-2.40
2018-11-23T20:10:10.720Z,-2.40
2018-11-23T20:12:39.805Z,-2.50
2018-11-23T20:15:11.164Z,-2.40
2018-11-23T20:17:41.475Z,-2.40
2018-11-23T20:20:10.853Z,-2.50
2018-11-23T20:22:39.369Z,-2.50
2018-11-23T20:25:10.196Z,-2.40
2018-11-23T20:27:38.741Z,-2.30
2018-11-23T20:30:11.439Z,-2.40
2018-11-23T20:32:40.689Z,-2.40
2018-11-23T20:35:10.738Z,-2.40
2018-11-23T20:37:39.292Z,-2.40
2018-11-23T20:40:11.719Z,-2.40
2018-11-23T20:42:40.230Z,-2.40
2018-11-23T20:45:10.815Z,-2.40
2018-11-23T20:47:39.409Z,-2.40
2018-11-23T20:50:10.360Z,-2.30
2018-11-23T20:52:38.881Z,-2.40
2018-11-23T20:55:10.173Z,-2.40
2018-11-23T20:57:38.673Z,-2.30
2018-11-23T21:00:11.431Z,-2.30
2018-11-23T21:02:39.924Z,-2.30
2018-11-23T21:05:10.233Z,-2.30
2018-11-23T21:07:39.110Z,-2.30
2018-11-23T21:10:10.689Z,-2.30
2018-11-23T21:12:39.191Z,-2.30
2018-11-23T21:15:15.530Z,-2.30
2018-11-23T21:17:44.065Z,-2.30
2018-11-23T21:20:12.608Z,-2.20
2018-11-23T21:22:41.209Z,-2.20
2018-11-23T21:25:11.097Z,-2.20
2018-11-23T21:27:39.652Z,-2.30
2018-11-23T21:30:17.461Z,-2.30
2018-11-23T21:32:46.065Z,-2.30
2018-11-23T21:35:14.786Z,-2.30
2018-11-23T21:37:43.305Z,-2.30
2018-11-23T21:40:13.164Z,-2.20
2018-11-23T21:42:41.676Z,-2.10
2018-11-23T21:45:13.456Z,-2.10
2018-11-23T21:47:41.984Z,-2.10
2018-11-23T21:50:24.641Z,-2.20
2018-11-23T21:52:46.688Z,-2.20
2018-11-23T21:55:19.937Z,-2.10
2018-11-23T21:57:48.973Z,-2.10
2018-11-23T22:00:17.569Z,-2.10
2018-11-23T22:02:46.101Z,-2.10
2018-11-23T22:05:14.661Z,-2.00
2018-11-23T22:07:43.173Z,-2.00
2018-11-23T22:10:15.014Z,-2.00
2018-11-23T22:12:43.534Z,-2.00
2018-11-23T22:15:17.646Z,-2.00
2018-11-23T22:17:46.846Z,-2.00
2018-11-23T22:20:16.673Z,-2.00
2018-11-23T22:22:45.173Z,-1.90
2018-11-23T22:25:15.254Z,-2.00
2018-11-23T22:27:44.270Z,-2.00
2018-11-23T22:30:15.190Z,-2.10
2018-11-23T22:32:43.694Z,-2.00
2018-11-23T22:35:12.889Z,-2.00
2018-11-23T22:37:41.405Z,-2.00
2018-11-23T22:40:15.487Z,-2.00
2018-11-23T22:42:46.291Z,-2.10
2018-11-23T22:45:16.147Z,-2.10
2018-11-23T22:47:44.682Z,-2.10
2018-11-23T22:50:17.596Z,-2.10
2018-11-23T22:52:46.117Z,-2.10
2018-11-23T22:55:15.812Z,-2.10
2018-11-23T22:57:44.357Z,-2.10
2018-11-23T23:00:20.479Z,-2.10
2018-11-23T23:02:49.648Z,-2.10
2018-11-23T23:05:19.466Z,-2.10
2018-11-23T23:07:47.963Z,-2.10
2018-11-23T23:10:16.538Z,-2.00
2018-11-23T23:12:45.073Z,-2.10
2018-11-23T23:15:13.643Z,-2.10
2018-11-23T23:17:42.281Z,-2.10
2018-11-23T23:20:12.769Z,-2.00
2018-11-23T23:22:41.258Z,-2.10
2018-11-23T23:25:11.074Z,-2.10
2018-11-23T23:27:39.595Z,-2.10
2018-11-23T23:30:10.572Z,-2.10
2018-11-23T23:32:39.996Z,-2.10
2018-11-23T23:35:09.906Z,-2.00
2018-11-23T23:37:38.787Z,-2.10
2018-11-23T23:40:09.770Z,-2.00
2018-11-23T23:42:38.292Z,-2.00
2018-11-23T23:45:10.386Z,-2.20
2018-11-23T23:47:38.915Z,-2.10
2018-11-23T23:50:12.687Z,-2.10
2018-11-23T23:52:41.589Z,-2.00
2018-11-23T23:55:10.866Z,-2.00
2018-11-23T23:57:41.176Z,-2.00
